sensor_id;sensor_type;location;lat;lon;timestamp;P1;durP1;ratioP1;P2;durP2;ratioP2
48727;SDS011;34527;45.618;5.130;2024-02-15T00:01:21;20.02;;;13.80;;
48727;SDS011;34527;45.618;5.130;2024-02-15T00:03:46;34.78;;;19.38;;
48727;SDS011;34527;45.618;5.130;2024-02-15T00:06:13;22.73;;;14.45;;
48727;SDS011;34527;45.618;5.130;2024-02-15T00:08:39;14.40;;;9.57;;
48727;SDS011;34527;45.618;5.130;2024-02-15T00:11:04;17.00;;;10.23;;
48727;SDS011;34527;45.618;5.130;2024-02-15T00:13:30;14.77;;;9.63;;
48727;SDS011;34527;45.618;5.130;2024-02-15T00:15:58;28.58;;;15.98;;
48727;SDS011;34527;45.618;5.130;2024-02-15T00:18:24;38.17;;;19.45;;
48727;SDS011;34527;45.618;5.130;2024-02-15T00:20:50;23.02;;;13.90;;
48727;SDS011;34527;45.618;5.130;2024-02-15T00:23:15;23.45;;;13.95;;
48727;SDS011;34527;45.618;5.130;2024-02-15T00:25:41;18.83;;;11.70;;
48727;SDS011;34527;45.618;5.130;2024-02-15T00:28:09;18.63;;;11.02;;
48727;SDS011;34527;45.618;5.130;2024-02-15T00:30:38;41.10;;;23.20;;
48727;SDS011;34527;45.618;5.130;2024-02-15T00:33:05;20.75;;;12.05;;
48727;SDS011;34527;45.618;5.130;2024-02-15T00:35:30;30.27;;;16.20;;
48727;SDS011;34527;45.618;5.130;2024-02-15T00:37:56;41.40;;;21.42;;
48727;SDS011;34527;45.618;5.130;2024-02-15T00:40:22;29.85;;;16.35;;
48727;SDS011;34527;45.618;5.130;2024-02-15T00:42:48;27.60;;;14.68;;
48727;SDS011;34527;45.618;5.130;2024-02-15T00:45:13;29.60;;;17.15;;
48727;SDS011;34527;45.618;5.130;2024-02-15T00:47:39;34.80;;;18.92;;
48727;SDS011;34527;45.618;5.130;2024-02-15T00:50:07;39.95;;;20.58;;
48727;SDS011;34527;45.618;5.130;2024-02-15T00:52:33;24.90;;;13.75;;
48727;SDS011;34527;45.618;5.130;2024-02-15T00:54:59;24.55;;;14.73;;
48727;SDS011;34527;45.618;5.130;2024-02-15T00:57:25;23.27;;;13.00;;
48727;SDS011;34527;45.618;5.130;2024-02-15T00:59:50;22.88;;;13.32;;
48727;SDS011;34527;45.618;5.130;2024-02-15T01:02:17;13.13;;;8.80;;
48727;SDS011;34527;45.618;5.130;2024-02-15T01:04:43;12.23;;;7.28;;
48727;SDS011;34527;45.618;5.130;2024-02-15T01:07:10;14.57;;;8.38;;
48727;SDS011;34527;45.618;5.130;2024-02-15T01:09:36;10.88;;;6.43;;
48727;SDS011;34527;45.618;5.130;2024-02-15T01:12:02;20.27;;;11.25;;
48727;SDS011;34527;45.618;5.130;2024-02-15T01:14:30;16.48;;;10.05;;
48727;SDS011;34527;45.618;5.130;2024-02-15T01:16:56;19.95;;;11.10;;
48727;SDS011;34527;45.618;5.130;2024-02-15T01:19:22;18.75;;;12.60;;
48727;SDS011;34527;45.618;5.130;2024-02-15T01:21:48;22.77;;;14.02;;
48727;SDS011;34527;45.618;5.130;2024-02-15T01:24:13;21.13;;;12.48;;
48727;SDS011;34527;45.618;5.130;2024-02-15T01:26:39;20.40;;;11.93;;
48727;SDS011;34527;45.618;5.130;2024-02-15T01:29:05;16.80;;;9.38;;
48727;SDS011;34527;45.618;5.130;2024-02-15T01:31:30;16.10;;;9.68;;
48727;SDS011;34527;45.618;5.130;2024-02-15T01:33:56;14.30;;;9.30;;
48727;SDS011;34527;45.618;5.130;2024-02-15T01:36:22;10.05;;;7.13;;
48727;SDS011;34527;45.618;5.130;2024-02-15T01:38:48;10.50;;;6.85;;
48727;SDS011;34527;45.618;5.130;2024-02-15T01:41:13;11.45;;;7.38;;
48727;SDS011;34527;45.618;5.130;2024-02-15T01:43:43;10.90;;;7.20;;
48727;SDS011;34527;45.618;5.130;2024-02-15T01:46:10;8.90;;;6.57;;
48727;SDS011;34527;45.618;5.130;2024-02-15T01:48:36;9.88;;;6.10;;
48727;SDS011;34527;45.618;5.130;2024-02-15T01:51:04;10.10;;;6.00;;
48727;SDS011;34527;45.618;5.130;2024-02-15T01:53:32;8.95;;;6.18;;
48727;SDS011;34527;45.618;5.130;2024-02-15T01:55:59;9.77;;;7.00;;
48727;SDS011;34527;45.618;5.130;2024-02-15T01:58:27;11.05;;;7.13;;
48727;SDS011;34527;45.618;5.130;2024-02-15T02:00:57;11.55;;;7.30;;
48727;SDS011;34527;45.618;5.130;2024-02-15T02:03:24;8.82;;;6.30;;
48727;SDS011;34527;45.618;5.130;2024-02-15T02:05:50;13.23;;;8.25;;
48727;SDS011;34527;45.618;5.130;2024-02-15T02:08:16;11.98;;;7.28;;
48727;SDS011;34527;45.618;5.130;2024-02-15T02:10:41;12.52;;;7.45;;
48727;SDS011;34527;45.618;5.130;2024-02-15T02:13:08;6.15;;;5.07;;
48727;SDS011;34527;45.618;5.130;2024-02-15T02:15:34;9.38;;;6.28;;
48727;SDS011;34527;45.618;5.130;2024-02-15T02:18:03;10.55;;;6.18;;
48727;SDS011;34527;45.618;5.130;2024-02-15T02:20:33;12.52;;;6.43;;
48727;SDS011;34527;45.618;5.130;2024-02-15T02:23:03;12.07;;;5.55;;
48727;SDS011;34527;45.618;5.130;2024-02-15T02:25:37;9.32;;;6.05;;
48727;SDS011;34527;45.618;5.130;2024-02-15T02:28:03;8.60;;;6.18;;
48727;SDS011;34527;45.618;5.130;2024-02-15T02:30:29;9.05;;;5.88;;
48727;SDS011;34527;45.618;5.130;2024-02-15T02:32:56;9.13;;;6.30;;
48727;SDS011;34527;45.618;5.130;2024-02-15T02:35:24;11.18;;;6.03;;
48727;SDS011;34527;45.618;5.130;2024-02-15T02:37:52;8.93;;;5.70;;
48727;SDS011;34527;45.618;5.130;2024-02-15T02:40:20;6.75;;;5.50;;
48727;SDS011;34527;45.618;5.130;2024-02-15T02:42:49;9.18;;;6.35;;
48727;SDS011;34527;45.618;5.130;2024-02-15T02:45:17;9.23;;;6.10;;
48727;SDS011;34527;45.618;5.130;2024-02-15T02:47:45;10.27;;;5.38;;
48727;SDS011;34527;45.618;5.130;2024-02-15T02:50:13;8.73;;;5.90;;
48727;SDS011;34527;45.618;5.130;2024-02-15T02:52:40;10.20;;;6.38;;
48727;SDS011;34527;45.618;5.130;2024-02-15T02:55:05;9.73;;;5.97;;
48727;SDS011;34527;45.618;5.130;2024-02-15T02:57:35;11.68;;;6.68;;
48727;SDS011;34527;45.618;5.130;2024-02-15T03:00:03;7.80;;;5.50;;
48727;SDS011;34527;45.618;5.130;2024-02-15T03:02:36;9.43;;;6.93;;
48727;SDS011;34527;45.618;5.130;2024-02-15T03:05:05;12.25;;;7.18;;
48727;SDS011;34527;45.618;5.130;2024-02-15T03:07:34;12.52;;;7.88;;
48727;SDS011;34527;45.618;5.130;2024-02-15T03:10:04;12.02;;;6.53;;
48727;SDS011;34527;45.618;5.130;2024-02-15T03:12:33;10.13;;;6.72;;
48727;SDS011;34527;45.618;5.130;2024-02-15T03:15:02;11.23;;;6.88;;
48727;SDS011;34527;45.618;5.130;2024-02-15T03:17:28;9.52;;;6.78;;
48727;SDS011;34527;45.618;5.130;2024-02-15T03:19:56;13.27;;;7.32;;
48727;SDS011;34527;45.618;5.130;2024-02-15T03:22:25;11.25;;;6.97;;
48727;SDS011;34527;45.618;5.130;2024-02-15T03:24:54;11.00;;;7.63;;
48727;SDS011;34527;45.618;5.130;2024-02-15T03:27:19;10.38;;;6.88;;
48727;SDS011;34527;45.618;5.130;2024-02-15T03:29:48;11.85;;;7.22;;
48727;SDS011;34527;45.618;5.130;2024-02-15T03:32:13;13.25;;;7.20;;
48727;SDS011;34527;45.618;5.130;2024-02-15T03:34:39;13.85;;;7.68;;
48727;SDS011;34527;45.618;5.130;2024-02-15T03:37:05;12.02;;;7.32;;
48727;SDS011;34527;45.618;5.130;2024-02-15T03:39:30;14.20;;;7.63;;
48727;SDS011;34527;45.618;5.130;2024-02-15T03:41:57;12.00;;;8.10;;
48727;SDS011;34527;45.618;5.130;2024-02-15T03:44:23;13.27;;;7.88;;
48727;SDS011;34527;45.618;5.130;2024-02-15T03:46:51;17.63;;;8.38;;
48727;SDS011;34527;45.618;5.130;2024-02-15T03:49:20;13.38;;;8.20;;
48727;SDS011;34527;45.618;5.130;2024-02-15T03:51:46;13.15;;;8.73;;
48727;SDS011;34527;45.618;5.130;2024-02-15T03:54:13;16.55;;;9.75;;
48727;SDS011;34527;45.618;5.130;2024-02-15T03:56:48;16.45;;;9.07;;
48727;SDS011;34527;45.618;5.130;2024-02-15T03:59:20;21.20;;;10.90;;
48727;SDS011;34527;45.618;5.130;2024-02-15T04:01:51;12.10;;;8.30;;
48727;SDS011;34527;45.618;5.130;2024-02-15T04:04:21;21.40;;;9.15;;
48727;SDS011;34527;45.618;5.130;2024-02-15T04:06:50;14.75;;;9.18;;
48727;SDS011;34527;45.618;5.130;2024-02-15T04:09:16;15.48;;;9.85;;
48727;SDS011;34527;45.618;5.130;2024-02-15T04:11:46;17.00;;;8.95;;
48727;SDS011;34527;45.618;5.130;2024-02-15T04:14:15;12.95;;;8.30;;
48727;SDS011;34527;45.618;5.130;2024-02-15T04:16:43;13.23;;;8.38;;
48727;SDS011;34527;45.618;5.130;2024-02-15T04:19:09;13.60;;;7.60;;
48727;SDS011;34527;45.618;5.130;2024-02-15T04:21:38;16.50;;;8.35;;
48727;SDS011;34527;45.618;5.130;2024-02-15T04:24:05;15.50;;;7.90;;
48727;SDS011;34527;45.618;5.130;2024-02-15T04:26:31;12.07;;;7.93;;
48727;SDS011;34527;45.618;5.130;2024-02-15T04:28:57;11.13;;;7.45;;
48727;SDS011;34527;45.618;5.130;2024-02-15T04:31:23;15.10;;;7.95;;
48727;SDS011;34527;45.618;5.130;2024-02-15T04:33:54;13.00;;;7.63;;
48727;SDS011;34527;45.618;5.130;2024-02-15T04:36:21;10.57;;;7.72;;
48727;SDS011;34527;45.618;5.130;2024-02-15T04:38:50;11.88;;;7.10;;
48727;SDS011;34527;45.618;5.130;2024-02-15T04:41:17;14.15;;;8.18;;
48727;SDS011;34527;45.618;5.130;2024-02-15T04:43:51;12.98;;;7.25;;
48727;SDS011;34527;45.618;5.130;2024-02-15T04:46:17;13.07;;;7.88;;
48727;SDS011;34527;45.618;5.130;2024-02-15T04:48:47;12.10;;;7.70;;
48727;SDS011;34527;45.618;5.130;2024-02-15T04:51:14;14.93;;;7.90;;
48727;SDS011;34527;45.618;5.130;2024-02-15T04:53:41;15.43;;;8.73;;
48727;SDS011;34527;45.618;5.130;2024-02-15T04:56:07;14.98;;;7.97;;
48727;SDS011;34527;45.618;5.130;2024-02-15T04:58:38;14.15;;;7.93;;
48727;SDS011;34527;45.618;5.130;2024-02-15T05:01:11;14.13;;;7.88;;
48727;SDS011;34527;45.618;5.130;2024-02-15T05:03:37;11.93;;;7.65;;
48727;SDS011;34527;45.618;5.130;2024-02-15T05:06:03;12.60;;;7.75;;
48727;SDS011;34527;45.618;5.130;2024-02-15T05:08:34;13.85;;;8.02;;
48727;SDS011;34527;45.618;5.130;2024-02-15T05:11:07;12.30;;;7.63;;
48727;SDS011;34527;45.618;5.130;2024-02-15T05:13:39;11.50;;;7.85;;
48727;SDS011;34527;45.618;5.130;2024-02-15T05:16:05;12.88;;;6.60;;
48727;SDS011;34527;45.618;5.130;2024-02-15T05:18:31;11.77;;;7.50;;
48727;SDS011;34527;45.618;5.130;2024-02-15T05:20:57;13.13;;;7.00;;
48727;SDS011;34527;45.618;5.130;2024-02-15T05:23:23;9.77;;;6.75;;
48727;SDS011;34527;45.618;5.130;2024-02-15T05:25:48;12.20;;;6.28;;
48727;SDS011;34527;45.618;5.130;2024-02-15T05:28:14;9.23;;;6.07;;
48727;SDS011;34527;45.618;5.130;2024-02-15T05:30:39;11.10;;;6.07;;
48727;SDS011;34527;45.618;5.130;2024-02-15T05:33:05;10.32;;;6.55;;
48727;SDS011;34527;45.618;5.130;2024-02-15T05:35:35;10.30;;;6.35;;
48727;SDS011;34527;45.618;5.130;2024-02-15T05:38:01;12.00;;;6.22;;
48727;SDS011;34527;45.618;5.130;2024-02-15T05:40:29;9.25;;;5.75;;
48727;SDS011;34527;45.618;5.130;2024-02-15T05:42:55;10.02;;;5.53;;
48727;SDS011;34527;45.618;5.130;2024-02-15T05:47:50;8.10;;;4.72;;
48727;SDS011;34527;45.618;5.130;2024-02-15T05:50:16;11.32;;;4.97;;
48727;SDS011;34527;45.618;5.130;2024-02-15T05:52:45;8.75;;;5.10;;
48727;SDS011;34527;45.618;5.130;2024-02-15T05:55:16;8.10;;;4.70;;
48727;SDS011;34527;45.618;5.130;2024-02-15T05:57:45;7.45;;;4.78;;
48727;SDS011;34527;45.618;5.130;2024-02-15T06:00:11;9.32;;;4.15;;
48727;SDS011;34527;45.618;5.130;2024-02-15T06:02:37;7.72;;;4.65;;
48727;SDS011;34527;45.618;5.130;2024-02-15T06:05:03;9.45;;;4.10;;
48727;SDS011;34527;45.618;5.130;2024-02-15T06:07:30;5.28;;;3.88;;
48727;SDS011;34527;45.618;5.130;2024-02-15T06:09:59;6.63;;;3.55;;
48727;SDS011;34527;45.618;5.130;2024-02-15T06:12:28;5.18;;;3.75;;
48727;SDS011;34527;45.618;5.130;2024-02-15T06:14:54;8.20;;;3.80;;
48727;SDS011;34527;45.618;5.130;2024-02-15T06:17:20;5.03;;;3.60;;
48727;SDS011;34527;45.618;5.130;2024-02-15T06:19:45;6.88;;;3.63;;
48727;SDS011;34527;45.618;5.130;2024-02-15T06:22:11;6.60;;;3.83;;
48727;SDS011;34527;45.618;5.130;2024-02-15T06:24:37;6.30;;;3.53;;
48727;SDS011;34527;45.618;5.130;2024-02-15T06:27:03;7.20;;;3.80;;
48727;SDS011;34527;45.618;5.130;2024-02-15T06:29:29;6.78;;;3.95;;
48727;SDS011;34527;45.618;5.130;2024-02-15T06:32:13;13.10;;;5.25;;
48727;SDS011;34527;45.618;5.130;2024-02-15T06:34:57;6.80;;;4.67;;
48727;SDS011;34527;45.618;5.130;2024-02-15T06:37:41;6.30;;;4.10;;
48727;SDS011;34527;45.618;5.130;2024-02-15T06:40:25;5.22;;;3.08;;
48727;SDS011;34527;45.618;5.130;2024-02-15T06:42:51;8.38;;;3.55;;
48727;SDS011;34527;45.618;5.130;2024-02-15T06:45:16;6.03;;;3.35;;
48727;SDS011;34527;45.618;5.130;2024-02-15T06:47:43;6.32;;;3.03;;
48727;SDS011;34527;45.618;5.130;2024-02-15T06:50:12;5.18;;;3.30;;
48727;SDS011;34527;45.618;5.130;2024-02-15T06:52:39;7.45;;;3.00;;
48727;SDS011;34527;45.618;5.130;2024-02-15T06:55:06;6.47;;;2.85;;
48727;SDS011;34527;45.618;5.130;2024-02-15T06:57:33;5.18;;;3.03;;
48727;SDS011;34527;45.618;5.130;2024-02-15T07:00:05;6.53;;;3.03;;
48727;SDS011;34527;45.618;5.130;2024-02-15T07:02:32;6.25;;;3.10;;
48727;SDS011;34527;45.618;5.130;2024-02-15T07:04:58;7.47;;;3.05;;
48727;SDS011;34527;45.618;5.130;2024-02-15T07:07:24;4.45;;;3.05;;
48727;SDS011;34527;45.618;5.130;2024-02-15T07:09:50;5.00;;;3.38;;
48727;SDS011;34527;45.618;5.130;2024-02-15T07:12:16;6.75;;;3.20;;
48727;SDS011;34527;45.618;5.130;2024-02-15T07:14:43;6.45;;;3.17;;
48727;SDS011;34527;45.618;5.130;2024-02-15T07:17:10;5.40;;;3.58;;
48727;SDS011;34527;45.618;5.130;2024-02-15T07:19:35;5.60;;;3.13;;
48727;SDS011;34527;45.618;5.130;2024-02-15T07:22:02;6.15;;;2.83;;
48727;SDS011;34527;45.618;5.130;2024-02-15T07:24:27;7.20;;;3.25;;
48727;SDS011;34527;45.618;5.130;2024-02-15T07:26:53;6.03;;;3.17;;
48727;SDS011;34527;45.618;5.130;2024-02-15T07:29:20;5.50;;;2.85;;
48727;SDS011;34527;45.618;5.130;2024-02-15T07:31:48;9.18;;;2.78;;
48727;SDS011;34527;45.618;5.130;2024-02-15T07:34:14;6.13;;;2.75;;
48727;SDS011;34527;45.618;5.130;2024-02-15T07:36:41;6.43;;;2.90;;
48727;SDS011;34527;45.618;5.130;2024-02-15T07:39:08;7.82;;;3.20;;
48727;SDS011;34527;45.618;5.130;2024-02-15T07:41:37;6.60;;;2.53;;
48727;SDS011;34527;45.618;5.130;2024-02-15T07:44:03;5.55;;;2.70;;
48727;SDS011;34527;45.618;5.130;2024-02-15T07:46:29;5.15;;;2.25;;
48727;SDS011;34527;45.618;5.130;2024-02-15T07:48:55;4.57;;;2.10;;
48727;SDS011;34527;45.618;5.130;2024-02-15T07:51:22;4.95;;;2.28;;
48727;SDS011;34527;45.618;5.130;2024-02-15T07:53:48;4.75;;;2.75;;
48727;SDS011;34527;45.618;5.130;2024-02-15T07:56:15;4.25;;;2.20;;
48727;SDS011;34527;45.618;5.130;2024-02-15T07:58:42;7.10;;;2.40;;
48727;SDS011;34527;45.618;5.130;2024-02-15T08:01:12;5.63;;;2.25;;
48727;SDS011;34527;45.618;5.130;2024-02-15T08:03:39;4.57;;;2.50;;
48727;SDS011;34527;45.618;5.130;2024-02-15T08:06:09;4.63;;;2.38;;
48727;SDS011;34527;45.618;5.130;2024-02-15T08:08:38;23.80;;;2.78;;
48727;SDS011;34527;45.618;5.130;2024-02-15T08:11:06;4.13;;;2.45;;
48727;SDS011;34527;45.618;5.130;2024-02-15T08:13:39;5.82;;;2.03;;
48727;SDS011;34527;45.618;5.130;2024-02-15T08:16:06;4.13;;;2.30;;
48727;SDS011;34527;45.618;5.130;2024-02-15T08:18:32;4.70;;;2.25;;
48727;SDS011;34527;45.618;5.130;2024-02-15T08:21:00;10.48;;;2.53;;
48727;SDS011;34527;45.618;5.130;2024-02-15T08:23:26;5.20;;;2.30;;
48727;SDS011;34527;45.618;5.130;2024-02-15T08:25:52;3.75;;;2.33;;
48727;SDS011;34527;45.618;5.130;2024-02-15T08:28:18;3.67;;;2.03;;
48727;SDS011;34527;45.618;5.130;2024-02-15T08:30:45;5.93;;;2.13;;
48727;SDS011;34527;45.618;5.130;2024-02-15T08:33:12;2.88;;;2.05;;
48727;SDS011;34527;45.618;5.130;2024-02-15T08:35:37;5.78;;;2.30;;
48727;SDS011;34527;45.618;5.130;2024-02-15T08:38:05;7.53;;;2.05;;
48727;SDS011;34527;45.618;5.130;2024-02-15T08:40:31;3.03;;;2.13;;
48727;SDS011;34527;45.618;5.130;2024-02-15T08:42:57;4.82;;;1.90;;
48727;SDS011;34527;45.618;5.130;2024-02-15T08:45:22;3.83;;;1.90;;
48727;SDS011;34527;45.618;5.130;2024-02-15T08:47:48;4.13;;;2.00;;
48727;SDS011;34527;45.618;5.130;2024-02-15T08:50:17;2.97;;;1.80;;
48727;SDS011;34527;45.618;5.130;2024-02-15T08:52:44;4.47;;;2.15;;
48727;SDS011;34527;45.618;5.130;2024-02-15T08:55:10;3.05;;;1.92;;
48727;SDS011;34527;45.618;5.130;2024-02-15T08:57:39;5.13;;;2.10;;
48727;SDS011;34527;45.618;5.130;2024-02-15T09:00:06;4.38;;;2.28;;
48727;SDS011;34527;45.618;5.130;2024-02-15T09:02:47;7.00;;;2.03;;
48727;SDS011;34527;45.618;5.130;2024-02-15T09:05:17;4.25;;;2.20;;
48727;SDS011;34527;45.618;5.130;2024-02-15T09:07:44;3.55;;;1.88;;
48727;SDS011;34527;45.618;5.130;2024-02-15T09:10:16;7.60;;;3.22;;
48727;SDS011;34527;45.618;5.130;2024-02-15T09:12:42;3.65;;;1.88;;
48727;SDS011;34527;45.618;5.130;2024-02-15T09:15:11;3.38;;;2.10;;
48727;SDS011;34527;45.618;5.130;2024-02-15T09:17:37;7.57;;;2.92;;
48727;SDS011;34527;45.618;5.130;2024-02-15T09:20:07;4.05;;;2.30;;
48727;SDS011;34527;45.618;5.130;2024-02-15T09:22:57;4.63;;;2.33;;
48727;SDS011;34527;45.618;5.130;2024-02-15T09:25:24;4.10;;;2.58;;
48727;SDS011;34527;45.618;5.130;2024-02-15T09:27:50;4.10;;;2.75;;
48727;SDS011;34527;45.618;5.130;2024-02-15T09:30:16;6.72;;;3.80;;
48727;SDS011;34527;45.618;5.130;2024-02-15T09:32:43;6.22;;;3.63;;
48727;SDS011;34527;45.618;5.130;2024-02-15T09:35:09;4.32;;;2.95;;
48727;SDS011;34527;45.618;5.130;2024-02-15T09:37:46;4.38;;;2.85;;
48727;SDS011;34527;45.618;5.130;2024-02-15T09:40:17;6.60;;;3.35;;
48727;SDS011;34527;45.618;5.130;2024-02-15T09:42:44;4.07;;;2.97;;
48727;SDS011;34527;45.618;5.130;2024-02-15T09:45:14;4.72;;;2.83;;
48727;SDS011;34527;45.618;5.130;2024-02-15T09:47:40;4.35;;;2.63;;
48727;SDS011;34527;45.618;5.130;2024-02-15T09:50:07;4.78;;;2.35;;
48727;SDS011;34527;45.618;5.130;2024-02-15T09:52:33;5.72;;;2.72;;
48727;SDS011;34527;45.618;5.130;2024-02-15T09:55:03;3.80;;;2.40;;
48727;SDS011;34527;45.618;5.130;2024-02-15T09:57:29;3.53;;;2.05;;
48727;SDS011;34527;45.618;5.130;2024-02-15T09:59:58;3.88;;;2.50;;
48727;SDS011;34527;45.618;5.130;2024-02-15T10:02:26;4.70;;;2.80;;
48727;SDS011;34527;45.618;5.130;2024-02-15T10:04:52;5.05;;;2.58;;
48727;SDS011;34527;45.618;5.130;2024-02-15T10:07:21;3.58;;;2.38;;
48727;SDS011;34527;45.618;5.130;2024-02-15T10:09:52;7.07;;;2.63;;
48727;SDS011;34527;45.618;5.130;2024-02-15T10:12:18;5.85;;;2.50;;
48727;SDS011;34527;45.618;5.130;2024-02-15T10:14:49;4.22;;;2.70;;
48727;SDS011;34527;45.618;5.130;2024-02-15T10:17:15;4.68;;;2.00;;
48727;SDS011;34527;45.618;5.130;2024-02-15T10:19:43;4.05;;;2.63;;
48727;SDS011;34527;45.618;5.130;2024-02-15T10:22:09;2.70;;;2.00;;
48727;SDS011;34527;45.618;5.130;2024-02-15T10:24:38;4.28;;;2.40;;
48727;SDS011;34527;45.618;5.130;2024-02-15T10:27:04;2.80;;;2.22;;
48727;SDS011;34527;45.618;5.130;2024-02-15T10:29:32;3.95;;;2.40;;
48727;SDS011;34527;45.618;5.130;2024-02-15T10:31:59;2.72;;;2.15;;
48727;SDS011;34527;45.618;5.130;2024-02-15T10:34:26;4.47;;;2.63;;
48727;SDS011;34527;45.618;5.130;2024-02-15T10:36:53;5.53;;;2.25;;
48727;SDS011;34527;45.618;5.130;2024-02-15T10:39:38;4.78;;;2.60;;
48727;SDS011;34527;45.618;5.130;2024-02-15T10:42:04;3.45;;;1.95;;
48727;SDS011;34527;45.618;5.130;2024-02-15T10:44:32;7.55;;;2.22;;
48727;SDS011;34527;45.618;5.130;2024-02-15T10:47:00;3.60;;;2.17;;
48727;SDS011;34527;45.618;5.130;2024-02-15T10:49:32;5.53;;;2.10;;
48727;SDS011;34527;45.618;5.130;2024-02-15T10:51:59;3.60;;;2.45;;
48727;SDS011;34527;45.618;5.130;2024-02-15T10:57:18;5.43;;;2.35;;
48727;SDS011;34527;45.618;5.130;2024-02-15T10:59:54;3.42;;;2.40;;
48727;SDS011;34527;45.618;5.130;2024-02-15T11:05:05;3.17;;;1.75;;
48727;SDS011;34527;45.618;5.130;2024-02-15T11:07:35;4.50;;;2.17;;
48727;SDS011;34527;45.618;5.130;2024-02-15T11:10:02;2.25;;;1.85;;
48727;SDS011;34527;45.618;5.130;2024-02-15T11:12:33;4.05;;;2.67;;
48727;SDS011;34527;45.618;5.130;2024-02-15T11:14:59;4.13;;;2.08;;
48727;SDS011;34527;45.618;5.130;2024-02-15T11:20:08;3.55;;;1.98;;
48727;SDS011;34527;45.618;5.130;2024-02-15T11:22:36;3.35;;;2.10;;
48727;SDS011;34527;45.618;5.130;2024-02-15T11:25:02;5.05;;;2.17;;
48727;SDS011;34527;45.618;5.130;2024-02-15T11:27:34;5.10;;;2.00;;
48727;SDS011;34527;45.618;5.130;2024-02-15T11:30:02;6.07;;;1.88;;
48727;SDS011;34527;45.618;5.130;2024-02-15T11:35:16;6.88;;;2.45;;
48727;SDS011;34527;45.618;5.130;2024-02-15T11:40:24;4.22;;;2.00;;
48727;SDS011;34527;45.618;5.130;2024-02-15T11:42:59;4.10;;;2.13;;
48727;SDS011;34527;45.618;5.130;2024-02-15T11:45:25;6.97;;;2.80;;
48727;SDS011;34527;45.618;5.130;2024-02-15T11:47:57;4.00;;;1.85;;
48727;SDS011;34527;45.618;5.130;2024-02-15T11:50:23;5.80;;;2.05;;
48727;SDS011;34527;45.618;5.130;2024-02-15T11:52:50;6.63;;;1.90;;
48727;SDS011;34527;45.618;5.130;2024-02-15T11:55:20;5.00;;;2.08;;
48727;SDS011;34527;45.618;5.130;2024-02-15T11:57:56;5.03;;;2.15;;
48727;SDS011;34527;45.618;5.130;2024-02-15T12:00:34;5.40;;;2.20;;
48727;SDS011;34527;45.618;5.130;2024-02-15T12:03:19;7.80;;;2.08;;
48727;SDS011;34527;45.618;5.130;2024-02-15T12:06:04;5.25;;;1.75;;
48727;SDS011;34527;45.618;5.130;2024-02-15T12:08:49;5.65;;;1.60;;
48727;SDS011;34527;45.618;5.130;2024-02-15T12:11:35;6.43;;;1.90;;
48727;SDS011;34527;45.618;5.130;2024-02-15T12:14:19;6.10;;;1.90;;
48727;SDS011;34527;45.618;5.130;2024-02-15T12:17:04;4.97;;;1.73;;
48727;SDS011;34527;45.618;5.130;2024-02-15T12:19:49;5.10;;;1.67;;
48727;SDS011;34527;45.618;5.130;2024-02-15T12:22:17;6.57;;;2.03;;
48727;SDS011;34527;45.618;5.130;2024-02-15T12:24:52;5.13;;;1.67;;
48727;SDS011;34527;45.618;5.130;2024-02-15T12:27:19;3.42;;;1.95;;
48727;SDS011;34527;45.618;5.130;2024-02-15T12:29:45;6.90;;;1.85;;
48727;SDS011;34527;45.618;5.130;2024-02-15T12:32:24;6.28;;;2.03;;
48727;SDS011;34527;45.618;5.130;2024-02-15T12:34:51;6.53;;;2.40;;
48727;SDS011;34527;45.618;5.130;2024-02-15T12:37:18;4.68;;;1.80;;
48727;SDS011;34527;45.618;5.130;2024-02-15T12:39:48;5.65;;;1.90;;
48727;SDS011;34527;45.618;5.130;2024-02-15T12:42:15;6.07;;;1.80;;
48727;SDS011;34527;45.618;5.130;2024-02-15T12:44:45;3.45;;;1.67;;
48727;SDS011;34527;45.618;5.130;2024-02-15T12:47:24;3.13;;;1.60;;
48727;SDS011;34527;45.618;5.130;2024-02-15T12:49:50;5.95;;;1.80;;
48727;SDS011;34527;45.618;5.130;2024-02-15T12:52:38;6.60;;;2.00;;
48727;SDS011;34527;45.618;5.130;2024-02-15T12:57:44;3.45;;;1.55;;
48727;SDS011;34527;45.618;5.130;2024-02-15T13:00:15;4.75;;;1.83;;
48727;SDS011;34527;45.618;5.130;2024-02-15T13:02:47;6.28;;;1.77;;
48727;SDS011;34527;45.618;5.130;2024-02-15T13:05:17;3.75;;;1.75;;
48727;SDS011;34527;45.618;5.130;2024-02-15T13:07:49;5.20;;;1.98;;
48727;SDS011;34527;45.618;5.130;2024-02-15T13:10:15;4.78;;;2.00;;
48727;SDS011;34527;45.618;5.130;2024-02-15T13:12:42;4.53;;;1.60;;
48727;SDS011;34527;45.618;5.130;2024-02-15T13:15:10;5.05;;;2.10;;
48727;SDS011;34527;45.618;5.130;2024-02-15T13:17:39;5.60;;;1.60;;
48727;SDS011;34527;45.618;5.130;2024-02-15T13:20:05;4.72;;;1.88;;
48727;SDS011;34527;45.618;5.130;2024-02-15T13:22:36;5.93;;;1.73;;
48727;SDS011;34527;45.618;5.130;2024-02-15T13:25:04;3.20;;;1.60;;
48727;SDS011;34527;45.618;5.130;2024-02-15T13:27:32;7.55;;;1.75;;
48727;SDS011;34527;45.618;5.130;2024-02-15T13:29:58;4.93;;;1.70;;
48727;SDS011;34527;45.618;5.130;2024-02-15T13:32:23;3.97;;;1.70;;
48727;SDS011;34527;45.618;5.130;2024-02-15T13:34:50;5.38;;;1.73;;
48727;SDS011;34527;45.618;5.130;2024-02-15T13:37:17;5.88;;;2.00;;
48727;SDS011;34527;45.618;5.130;2024-02-15T13:39:45;5.30;;;2.03;;
48727;SDS011;34527;45.618;5.130;2024-02-15T13:42:15;7.72;;;1.75;;
48727;SDS011;34527;45.618;5.130;2024-02-15T13:44:44;4.30;;;1.63;;
48727;SDS011;34527;45.618;5.130;2024-02-15T13:47:11;6.50;;;2.00;;
48727;SDS011;34527;45.618;5.130;2024-02-15T13:49:37;3.00;;;1.73;;
48727;SDS011;34527;45.618;5.130;2024-02-15T13:52:04;6.60;;;1.67;;
48727;SDS011;34527;45.618;5.130;2024-02-15T13:54:31;7.55;;;2.03;;
48727;SDS011;34527;45.618;5.130;2024-02-15T13:56:57;3.42;;;1.90;;
48727;SDS011;34527;45.618;5.130;2024-02-15T13:59:25;4.78;;;1.60;;
48727;SDS011;34527;45.618;5.130;2024-02-15T14:01:52;4.85;;;1.95;;
48727;SDS011;34527;45.618;5.130;2024-02-15T14:04:18;6.10;;;2.25;;
48727;SDS011;34527;45.618;5.130;2024-02-15T14:06:44;3.38;;;1.55;;
48727;SDS011;34527;45.618;5.130;2024-02-15T14:09:10;3.13;;;2.13;;
48727;SDS011;34527;45.618;5.130;2024-02-15T14:11:39;4.68;;;1.80;;
48727;SDS011;34527;45.618;5.130;2024-02-15T14:14:05;5.05;;;1.98;;
48727;SDS011;34527;45.618;5.130;2024-02-15T14:16:31;6.75;;;1.90;;
48727;SDS011;34527;45.618;5.130;2024-02-15T14:18:58;5.22;;;1.70;;
48727;SDS011;34527;45.618;5.130;2024-02-15T14:21:24;4.75;;;1.80;;
48727;SDS011;34527;45.618;5.130;2024-02-15T14:23:50;6.53;;;2.10;;
48727;SDS011;34527;45.618;5.130;2024-02-15T14:26:16;4.63;;;1.88;;
48727;SDS011;34527;45.618;5.130;2024-02-15T14:28:42;5.78;;;1.85;;
48727;SDS011;34527;45.618;5.130;2024-02-15T14:31:10;7.68;;;2.10;;
48727;SDS011;34527;45.618;5.130;2024-02-15T14:33:55;3.58;;;1.90;;
48727;SDS011;34527;45.618;5.130;2024-02-15T14:36:20;4.30;;;1.70;;
48727;SDS011;34527;45.618;5.130;2024-02-15T14:38:46;4.85;;;1.83;;
48727;SDS011;34527;45.618;5.130;2024-02-15T14:41:12;3.10;;;1.48;;
48727;SDS011;34527;45.618;5.130;2024-02-15T14:43:38;4.90;;;2.00;;
48727;SDS011;34527;45.618;5.130;2024-02-15T14:46:03;4.00;;;2.28;;
48727;SDS011;34527;45.618;5.130;2024-02-15T14:48:33;5.05;;;1.80;;
48727;SDS011;34527;45.618;5.130;2024-02-15T14:50:59;8.88;;;1.77;;
48727;SDS011;34527;45.618;5.130;2024-02-15T14:53:25;3.72;;;2.40;;
48727;SDS011;34527;45.618;5.130;2024-02-15T14:55:52;2.80;;;1.63;;
48727;SDS011;34527;45.618;5.130;2024-02-15T14:58:19;4.93;;;1.80;;
48727;SDS011;34527;45.618;5.130;2024-02-15T15:00:47;3.28;;;1.60;;
48727;SDS011;34527;45.618;5.130;2024-02-15T15:03:14;2.95;;;1.75;;
48727;SDS011;34527;45.618;5.130;2024-02-15T15:05:44;3.55;;;1.75;;
48727;SDS011;34527;45.618;5.130;2024-02-15T15:08:28;7.75;;;1.90;;